Strona główna
METAR-TAF:

METAR-TAF

Lotnisko :

Port lotniczy Gdańsk-Rębiechowo

Gdańsk, Polska

Szerokość geograficzna: 54-23N, Długość geograficzna: 018-28E, wysokość: 135 m

Aktualna obserwacja pogody

Raport powstał 14 minut temu, godzina 02:30 UTC
Wiatr 1 kt z kierunków zmiennych
Temperatura 7°C
Wilgotność 93%
Ciśnienie 1019 hPa
Widzialność: 6000 m

METAR: EPGD 180230Z VRB01KT 6000 NSC 07/06 Q1019

czas: 04:44 (02:44 UTC)

Prognoza

Raport powstał 3 godziny i 14 minut temu, godzina 23:30 UTC
Prognoza ważna od 18 godzina 00 UTC do 18 godzina 24 UTC
Wiatr 4 kt z kierunków zmiennych
Widzialność 10 km lub więcej
Brak chmur poniżej 1500 m i brak chmur cumulonimbus
Prawdopodobieństwo 40%
od 18 godzina 00 UTC do 18 godzina 08 UTC
Widzialność: 3000 m
zamglenie
Stopniowe zmiany
od 18 godzina 20 UTC do 18 godzina 22 UTC
Widzialność: 2000 m
Przerywane chmury na wysokości 900 ft
słaby deszcz, zamglenie

TAF: EPGD 172330Z 1800/1824 VRB04KT CAVOK PROB40 1800/1808 3000 BR BECMG 1820/1822 2000 -RA BR BKN009

Obserwacja i prognoza pogody dla ponad 4000 lotnisk (raport METAR i TAF).

Dostępne stacje oznaczono żółtymi i czerwonymi punktami na mapie.

Najedź kursorem aby zobaczyć nazwę stacji.

Kliknij aby zobaczyć obserwacje i prognozy pogody.

Aby zmienić mapę: kliknij na zielony przycisk z czarnym krzyżykiem, aby powiększyć; na zielony przycisk z myślnikiem, aby pomniejszyć; na zielone strzałki, aby przejść do map sąsiednich.


METAR-TAF: